aviador You're here:

KMRB Decoded Metar

MARTINSBURG in WV, USA
Report Time2017-12-18 07:53:00
UTC Time2017-12-18 08:48:23
Flight Rules vfr VFR
Wind350° at 03 kt
W.Decomp.*RWY 08: 0.4 kt HW 3 kt LCW
W.Rank350° ranks 21
Current wind is below 350° avg. (6.2)
Visibility9999 m
Phenomena:N/A
Clouds:Overcast 042 Hf
Expected CloudBase > 1,600 ft AGL from Temp-Dew spread
Ceiling4,200 ft
Temp03°C (ISA -11)
Dew Point-1°C (75% RH)
AAT-0.2°C
QNH1020 hPa
Density Alt-945 ft
Elevation538 ft
Report Wrong Elevation
Raw Report
METAR KMRB 180753Z AUTO 35003KT 7SM OVC042 03/M01 A3011 RMK AO2 SLP198
T00331006=

Extra information for KMRB:More info

Metar Taf Metar & Taf Last 4 Metars F.Rules Stats Wind Profile Meteogram Temp Stats Airport Information Weather charts Add Link Nearby VenuesMetar ALERT Operation Metar Decoded Social comments

AIRNAV info for KMRB